Time;durP1;ratioP1;P1;durP2;ratioP2;P2;SDS_P1;SDS_P2;PMS_P1;PMS_P2;Temp;Humidity;BMP_temperature;BMP_pressure;BME280_temperature;BME280_humidity;BME280_pressure;Samples;Min_cycle;Max_cycle;Signal;HPM_P1;HPM_P2
2022/02/19 00:02:13;;;;;;;6.83;2.20;;;;;;;10.24;37.67;97037.81;8349622;28;20238;-70
2022/02/19 00:06:17;;;;;;;9.53;2.53;;;;;;;10.15;37.34;97049.53;8350324;28;20228;-70
2022/02/19 00:10:21;;;;;;;7.07;2.20;;;;;;;10.26;36.29;97059.25;8350255;28;20239;-70
2022/02/19 00:14:24;;;;;;;9.23;2.50;;;;;;;10.20;35.64;97055.25;8350121;28;20232;-71
2022/02/19 00:18:27;;;;;;;6.93;2.03;;;;;;;10.34;35.26;97065.69;8350017;28;20232;-70
2022/02/19 00:22:30;;;;;;;8.80;2.10;;;;;;;10.07;35.10;97065.50;8349612;28;20581;-70
2022/02/19 00:26:36;;;;;;;10.03;2.93;;;;;;;9.96;34.69;97066.09;8349410;28;20638;-71
2022/02/19 00:30:40;;;;;;;8.77;2.23;;;;;;;9.87;33.68;97089.06;8349673;28;20242;-70
2022/02/19 00:34:43;;;;;;;5.53;2.20;;;;;;;9.98;33.08;97099.63;8349336;28;20240;-71
2022/02/19 00:38:47;;;;;;;9.20;2.60;;;;;;;10.03;32.77;97110.53;8349422;28;20236;-70
2022/02/19 00:42:51;;;;;;;8.93;2.67;;;;;;;10.24;32.97;97125.78;8349606;28;20239;-71
2022/02/19 00:46:56;;;;;;;10.13;2.37;;;;;;;10.23;33.15;97130.13;8349462;28;20231;-71
2022/02/19 00:50:59;;;;;;;6.70;2.10;;;;;;;10.31;33.26;97148.66;8349276;28;20295;-70
2022/02/19 00:55:02;;;;;;;11.80;2.43;;;;;;;10.32;33.11;97144.34;8348400;28;20550;-71
2022/02/19 00:59:06;;;;;;;7.97;2.37;;;;;;;10.36;33.16;97149.25;8349063;28;20228;-71
2022/02/19 01:03:09;;;;;;;7.87;2.50;;;;;;;10.45;33.16;97150.50;8348836;28;20535;-71
2022/02/19 01:07:12;;;;;;;7.27;2.33;;;;;;;10.38;33.67;97167.28;8348891;28;20228;-71
2022/02/19 01:11:15;;;;;;;7.43;2.33;;;;;;;10.27;34.48;97162.69;8348673;28;20228;-70
2022/02/19 01:15:20;;;;;;;8.03;2.50;;;;;;;10.35;34.98;97160.50;8348525;28;20426;-71
2022/02/19 01:19:22;;;;;;;9.20;2.40;;;;;;;10.15;36.44;97164.19;8348608;28;20236;-70
2022/02/19 01:23:25;;;;;;;10.70;2.77;;;;;;;10.07;36.78;97174.16;8348055;28;20228;-70
2022/02/19 01:27:28;;;;;;;7.77;2.60;;;;;;;10.08;37.29;97162.88;8347722;28;20244;-70
2022/02/19 01:31:32;;;;;;;10.37;2.90;;;;;;;10.03;37.71;97171.78;8347339;28;20235;-71
2022/02/19 01:35:37;;;;;;;8.93;2.50;;;;;;;10.08;37.61;97174.97;8347812;28;20414;-71
2022/02/19 01:39:40;;;;;;;10.47;2.97;;;;;;;10.01;37.86;97181.38;8347719;28;20243;-71
2022/02/19 01:43:45;;;;;;;10.43;2.87;;;;;;;9.96;37.53;97184.25;8340122;28;20236;-71
2022/02/19 01:47:49;;;;;;;5.97;2.13;;;;;;;9.82;38.19;97182.38;8349776;28;20235;-70
2022/02/19 01:51:52;;;;;;;8.03;2.60;;;;;;;9.81;38.06;97183.31;8349406;28;20200;-71
2022/02/19 01:55:57;;;;;;;12.13;2.97;;;;;;;9.75;38.54;97189.66;8349214;28;20235;-71
2022/02/19 02:00:00;;;;;;;10.07;3.03;;;;;;;9.93;38.54;97208.50;8348391;28;20550;-71
2022/02/19 02:04:05;;;;;;;14.83;3.20;;;;;;;9.73;39.27;97207.00;8347562;28;20497;-71
2022/02/19 02:08:08;;;;;;;11.53;3.33;;;;;;;9.72;39.21;97215.66;8350958;28;20262;-70
2022/02/19 02:12:11;;;;;;;10.50;2.90;;;;;;;9.86;38.96;97227.00;8353829;28;20228;-70
2022/02/19 02:16:14;;;;;;;11.67;2.80;;;;;;;9.55;39.31;97233.81;8353899;28;20531;-70
2022/02/19 02:20:19;;;;;;;8.90;2.73;;;;;;;9.70;39.40;97239.94;8354188;28;20223;-70
2022/02/19 02:24:23;;;;;;;10.77;2.67;;;;;;;9.70;39.24;97239.94;8354003;28;20231;-71
2022/02/19 02:28:29;;;;;;;9.43;2.70;;;;;;;9.88;39.34;97254.47;8352970;28;20411;-72
2022/02/19 02:32:34;;;;;;;11.47;3.20;;;;;;;9.79;38.75;97235.09;8352653;28;20236;-72
2022/02/19 02:36:37;;;;;;;10.17;2.93;;;;;;;9.77;39.09;97247.28;8353313;28;20247;-73
2022/02/19 02:40:42;;;;;;;12.47;3.70;;;;;;;9.64;38.65;97255.78;8353369;28;20236;-72
2022/02/19 02:44:46;;;;;;;12.50;3.57;;;;;;;9.73;38.73;97261.28;8353157;28;20258;-72
2022/02/19 02:49:08;;;;;;;9.33;3.10;;;;;;;9.61;39.56;97272.25;8352729;28;20227;-72
2022/02/19 02:53:12;;;;;;;12.60;3.70;;;;;;;9.48;39.52;97287.56;8353075;28;20232;-72
2022/02/19 02:57:16;;;;;;;13.63;3.07;;;;;;;9.61;39.29;97276.59;8352767;28;20228;-72
2022/02/19 03:01:19;;;;;;;12.33;3.57;;;;;;;9.47;39.74;97278.13;8352065;28;20228;-72
2022/02/19 03:05:22;;;;;;;11.17;3.30;;;;;;;9.66;39.80;97272.84;8352089;28;20232;-72
2022/02/19 03:09:27;;;;;;;10.27;3.20;;;;;;;9.57;40.08;97274.16;8352186;28;20228;-72
2022/02/19 03:13:31;;;;;;;17.87;3.87;;;;;;;9.31;40.25;97282.41;8351970;28;20247;-72
2022/02/19 03:17:37;;;;;;;13.93;3.47;;;;;;;9.39;40.27;97291.44;8351211;28;20519;-72
2022/02/19 03:21:41;;;;;;;12.80;3.67;;;;;;;9.47;40.10;97287.66;8351239;28;20232;-73
2022/02/19 03:25:44;;;;;;;12.90;3.20;;;;;;;9.61;40.17;97320.53;8351503;28;20251;-72
2022/02/19 03:29:48;;;;;;;11.40;3.43;;;;;;;9.59;40.24;97305.09;8351421;28;20236;-72
2022/02/19 03:33:51;;;;;;;11.87;3.50;;;;;;;9.63;40.37;97308.38;8351226;28;20244;-72
2022/02/19 03:37:54;;;;;;;12.97;3.17;;;;;;;9.46;40.24;97325.59;8351563;28;20228;-72
2022/02/19 03:41:57;;;;;;;12.40;3.13;;;;;;;9.66;40.03;97326.31;8351382;28;20228;-72
2022/02/19 03:46:01;;;;;;;9.73;2.80;;;;;;;9.69;39.75;97328.75;8351191;28;20256;-72
2022/02/19 03:50:06;;;;;;;11.33;3.23;;;;;;;9.64;40.14;97344.50;8350897;28;20236;-73
2022/02/19 03:54:09;;;;;;;10.30;3.20;;;;;;;9.48;40.29;97344.44;8350719;28;20236;-72
2022/02/19 03:58:12;;;;;;;11.07;3.20;;;;;;;9.58;40.24;97349.97;8351010;28;20228;-72
2022/02/19 04:02:16;;;;;;;11.67;2.80;;;;;;;9.57;39.65;97371.56;8350632;28;20232;-72
2022/02/19 04:06:19;;;;;;;12.33;3.43;;;;;;;9.35;40.40;97371.78;8350648;28;20240;-73
2022/02/19 04:10:24;;;;;;;13.13;3.33;;;;;;;9.33;39.97;97369.28;8350551;28;20554;-72
2022/02/19 04:14:27;;;;;;;13.57;3.37;;;;;;;9.47;40.18;97386.69;8350661;28;20253;-72
2022/02/19 04:18:31;;;;;;;14.77;3.47;;;;;;;9.10;40.41;97382.44;8349918;28;20232;-72
2022/02/19 04:22:35;;;;;;;16.23;3.73;;;;;;;9.18;40.57;97382.94;8349366;28;20553;-72
2022/02/19 04:26:38;;;;;;;14.20;3.60;;;;;;;9.25;40.47;97394.63;8349789;28;20240;-72
2022/02/19 04:30:41;;;;;;;12.03;3.37;;;;;;;9.06;40.77;97405.00;8349571;28;20250;-72
2022/02/19 04:34:46;;;;;;;10.93;3.47;;;;;;;9.00;40.51;97403.56;8348971;28;20240;-72
2022/02/19 04:38:49;;;;;;;14.30;3.43;;;;;;;8.95;40.37;97404.69;8349203;28;20239;-72
2022/02/19 04:42:54;;;;;;;13.20;3.53;;;;;;;8.88;40.25;97409.31;8349233;28;20239;-72
2022/02/19 04:46:57;;;;;;;12.50;3.57;;;;;;;8.91;40.24;97424.66;8348949;28;20236;-72
2022/02/19 04:51:02;;;;;;;14.80;3.87;;;;;;;8.93;40.01;97433.16;8349113;28;20242;-72
2022/02/19 04:55:05;;;;;;;16.13;3.47;;;;;;;8.83;40.28;97431.91;8348641;28;20236;-72
2022/02/19 04:59:08;;;;;;;11.47;3.37;;;;;;;8.47;40.53;97452.47;8348767;28;20247;-72
2022/02/19 05:03:11;;;;;;;12.27;3.30;;;;;;;8.62;41.10;97454.38;8348454;28;20240;-72
2022/02/19 05:07:15;;;;;;;10.60;3.27;;;;;;;8.71;40.21;97455.72;8348573;28;20242;-72
2022/02/19 05:11:18;;;;;;;13.83;3.93;;;;;;;8.52;40.90;97466.00;8348476;28;20258;-72
2022/02/19 05:15:21;;;;;;;15.37;3.60;;;;;;;8.85;40.53;97468.00;8348467;28;20406;-72
2022/02/19 05:19:24;;;;;;;12.27;3.33;;;;;;;8.72;40.15;97472.84;8348369;28;20239;-72
2022/02/19 05:23:28;;;;;;;11.63;3.10;;;;;;;8.58;40.22;97473.47;8348210;28;20239;-72
2022/02/19 05:27:32;;;;;;;13.60;3.00;;;;;;;8.37;40.55;97482.97;8347692;28;20239;-72
2022/02/19 05:31:34;;;;;;;11.50;3.53;;;;;;;8.67;39.75;97498.06;8348355;28;20232;-72
2022/02/19 05:35:37;;;;;;;11.30;3.40;;;;;;;8.56;40.15;97504.50;8348119;28;20424;-72
2022/02/19 05:39:42;;;;;;;10.17;3.17;;;;;;;8.59;40.12;97504.38;8347979;28;20239;-72
2022/02/19 05:43:45;;;;;;;10.67;2.90;;;;;;;8.53;40.23;97514.13;8347232;28;20231;-72
2022/02/19 05:47:48;;;;;;;12.63;3.27;;;;;;;8.64;40.08;97516.25;8347184;28;20227;-72
2022/02/19 05:51:50;;;;;;;11.70;3.30;;;;;;;8.44;40.75;97530.88;8347434;28;20455;-72
2022/02/19 05:55:55;;;;;;;13.20;3.23;;;;;;;8.32;41.59;97528.75;8347179;28;20231;-72
2022/02/19 05:59:58;;;;;;;12.07;2.57;;;;;;;8.36;41.46;97538.06;8346881;28;20550;-72
2022/02/19 06:04:01;;;;;;;10.17;3.17;;;;;;;8.25;41.39;97553.97;8347173;28;20230;-72
2022/02/19 06:08:05;;;;;;;10.43;3.10;;;;;;;8.23;41.59;97553.22;8346964;28;20227;-72
2022/02/19 06:12:10;;;;;;;14.27;3.37;;;;;;;8.43;41.35;97554.16;8346982;28;20427;-72
2022/02/19 06:16:13;;;;;;;13.03;3.43;;;;;;;8.40;41.33;97576.56;8347094;28;20543;-72
2022/02/19 06:20:16;;;;;;;12.17;5.40;;;;;;;8.30;41.45;97587.31;8347064;28;20228;-72
2022/02/19 06:24:19;;;;;;;13.93;4.03;;;;;;;8.24;41.36;97601.31;8347140;28;20435;-72
2022/02/19 06:28:23;;;;;;;13.97;4.10;;;;;;;8.33;41.56;97607.84;8346958;28;20236;-72
2022/02/19 06:32:27;;;;;;;12.37;3.63;;;;;;;8.47;41.53;97628.78;8346981;28;20228;-72
2022/02/19 06:36:30;;;;;;;11.67;3.20;;;;;;;8.42;41.67;97638.47;8347270;28;20236;-72
2022/02/19 06:40:33;;;;;;;13.00;3.50;;;;;;;8.38;41.94;97644.63;8346524;28;20231;-72
2022/02/19 06:44:37;;;;;;;15.33;3.83;;;;;;;8.56;41.60;97666.28;8346573;28;20232;-72
2022/02/19 06:48:40;;;;;;;11.00;3.10;;;;;;;8.31;41.96;97662.09;8346625;28;20235;-72
2022/02/19 06:52:43;;;;;;;14.07;3.20;;;;;;;8.57;41.67;97675.72;8347570;28;20246;-72
2022/02/19 06:56:46;;;;;;;10.63;3.00;;;;;;;8.61;41.68;97687.59;8351805;28;20251;-72
2022/02/19 07:00:52;;;;;;;11.13;3.23;;;;;;;8.53;41.49;97689.63;8349010;28;20237;-73
2022/02/19 07:04:55;;;;;;;11.67;3.10;;;;;;;8.94;41.46;97703.41;8351487;28;20232;-72
2022/02/19 07:08:58;;;;;;;12.57;3.70;;;;;;;9.33;40.37;97717.31;8351610;28;20232;-72
2022/02/19 07:13:01;;;;;;;14.83;4.07;;;;;;;9.44;39.37;97725.41;8349077;28;20227;-72
2022/02/19 07:17:06;;;;;;;10.53;3.97;;;;;;;10.02;38.47;97728.91;8351586;28;20236;-72
2022/02/19 07:21:08;;;;;;;12.57;4.50;;;;;;;9.77;39.00;97736.03;8351376;28;20236;-72
2022/02/19 07:25:12;;;;;;;14.30;5.13;;;;;;;10.10;38.36;97748.34;8351197;28;20538;-72
2022/02/19 07:29:15;;;;;;;13.13;4.23;;;;;;;9.79;38.09;97754.91;8350980;28;20261;-72
2022/02/19 07:33:19;;;;;;;7.90;2.97;;;;;;;9.58;38.62;97774.78;8350771;28;20224;-72
2022/02/19 07:37:22;;;;;;;14.10;3.73;;;;;;;9.60;38.60;97785.06;8350681;28;20239;-72
2022/02/19 07:41:25;;;;;;;13.93;3.13;;;;;;;9.50;38.97;97792.38;8350473;28;20224;-72
2022/02/19 07:45:28;;;;;;;11.33;4.10;;;;;;;9.53;39.26;97805.16;8349850;28;20235;-73
2022/02/19 07:58:19;;;;;;;12.73;3.07;;;;;;;9.72;38.26;97812.97;8347296;28;20231;-72
2022/02/19 08:02:22;;;;;;;10.77;2.97;;;;;;;10.08;37.83;97825.19;8347743;28;20224;-72
2022/02/19 08:06:27;;;;;;;10.87;3.07;;;;;;;10.65;36.48;97825.22;8349120;28;20236;-74
2022/02/19 08:10:29;;;;;;;11.10;3.20;;;;;;;11.23;35.77;97818.16;8349420;28;20239;-73
2022/02/19 08:14:32;;;;;;;7.63;2.67;;;;;;;11.44;35.21;97822.28;8349840;28;20228;-72
2022/02/19 08:18:35;;;;;;;8.57;2.47;;;;;;;11.48;35.06;97844.53;8349840;28;20248;-72
2022/02/19 08:22:40;;;;;;;8.63;2.63;;;;;;;11.72;34.57;97844.22;8349637;28;20224;-72
2022/02/19 08:26:43;;;;;;;12.23;3.00;;;;;;;11.65;35.21;97848.03;8348757;28;20231;-72
2022/02/19 08:30:46;;;;;;;10.03;2.90;;;;;;;11.68;34.69;97850.47;8348762;28;20224;-72
2022/02/19 08:34:49;;;;;;;9.60;2.80;;;;;;;11.93;34.42;97857.88;8347838;28;20236;-72
2022/02/19 08:38:54;;;;;;;8.87;2.80;;;;;;;11.50;35.14;97867.81;8348285;28;20235;-71
2022/02/19 08:42:57;;;;;;;12.60;2.77;;;;;;;11.46;35.32;97887.88;8348744;28;20432;-71
2022/02/19 08:47:00;;;;;;;8.80;2.83;;;;;;;11.96;34.14;97880.25;8349121;28;20243;-72
2022/02/19 08:51:03;;;;;;;11.20;2.90;;;;;;;12.05;33.71;97896.19;8348932;28;20229;-72
2022/02/19 08:55:09;;;;;;;11.67;2.50;;;;;;;11.39;35.50;97901.22;8348777;28;20243;-72
2022/02/19 08:59:12;;;;;;;7.37;2.70;;;;;;;11.40;35.06;97906.28;8348964;28;20227;-72
2022/02/19 09:03:15;;;;;;;10.63;2.93;;;;;;;11.75;35.00;97911.53;8349010;28;20228;-72
2022/02/19 09:07:18;;;;;;;8.73;2.50;;;;;;;12.56;33.68;97918.66;8348530;28;20431;-72
2022/02/19 09:11:23;;;;;;;7.83;2.63;;;;;;;11.54;34.12;97934.19;8347982;28;20542;-72
2022/02/19 09:15:26;;;;;;;8.13;2.53;;;;;;;12.32;32.78;97932.84;8347815;28;20243;-71
2022/02/19 09:19:29;;;;;;;8.73;2.47;;;;;;;12.44;33.46;97939.16;8347525;28;20235;-71
2022/02/19 09:23:32;;;;;;;7.20;2.50;;;;;;;12.55;33.06;97942.97;8347690;28;20407;-71
2022/02/19 09:27:37;;;;;;;8.00;2.47;;;;;;;12.71;32.56;97943.81;8347898;28;20463;-72
2022/02/19 09:31:41;;;;;;;9.53;2.83;;;;;;;13.86;30.75;97953.06;8348168;28;20236;-72
2022/02/19 09:35:44;;;;;;;9.17;2.60;;;;;;;12.58;32.49;97943.63;8347711;28;20247;-72
2022/02/19 09:39:47;;;;;;;12.13;3.13;;;;;;;13.71;30.81;97943.56;8347789;28;20546;-72
2022/02/19 09:43:52;;;;;;;8.47;2.70;;;;;;;13.88;30.40;97947.78;8347126;28;20239;-72
2022/02/19 09:47:55;;;;;;;9.50;2.77;;;;;;;14.33;29.44;97961.59;8347776;28;20592;-74
2022/02/19 09:51:59;;;;;;;9.30;2.40;;;;;;;15.14;28.17;97962.81;8347497;28;20228;-73
2022/02/19 09:56:02;;;;;;;9.60;2.50;;;;;;;13.10;30.77;97966.84;8347473;28;20232;-72
2022/02/19 10:00:20;;;;;;;8.37;2.47;;;;;;;14.25;28.88;97969.88;8347212;28;20231;-72
2022/02/19 10:04:26;;;;;;;7.27;2.60;;;;;;;14.01;29.57;97980.00;8347471;28;20228;-72
2022/02/19 10:08:29;;;;;;;5.80;2.20;;;;;;;13.29;30.77;97984.88;8347555;28;20266;-72
2022/02/19 10:12:45;;;;;;;9.53;2.47;;;;;;;13.75;29.28;97988.47;8345669;28;20234;-73
2022/02/19 10:17:08;;;;;;;8.73;2.60;;;;;;;14.02;29.48;97983.44;8346764;28;20260;-72
2022/02/19 10:21:14;;;;;;;8.83;2.97;;;;;;;15.04;28.39;97984.25;8347263;28;20232;-72
2022/02/19 10:25:24;;;;;;;8.37;2.70;;;;;;;15.39;27.86;97990.81;8345674;28;20234;-73
2022/02/19 10:29:31;;;;;;;9.03;3.10;;;;;;;15.55;27.59;97998.47;8350964;28;20255;-72
2022/02/19 10:33:36;;;;;;;8.30;2.27;;;;;;;15.96;26.52;98002.84;8328134;28;20236;-73
2022/02/19 10:37:44;;;;;;;7.30;2.37;;;;;;;15.38;27.09;98010.00;8319588;28;20422;-73
2022/02/19 10:41:48;;;;;;;7.50;2.50;;;;;;;15.14;27.52;98020.22;8320124;28;20400;-72
2022/02/19 10:45:53;;;;;;;7.77;2.80;;;;;;;15.41;27.03;98020.25;8319926;28;20274;-72
2022/02/19 10:50:09;;;;;;;9.07;2.70;;;;;;;15.86;26.55;98005.22;8319775;28;20229;-72
2022/02/19 10:54:14;;;;;;;8.47;2.67;;;;;;;15.83;26.83;98018.47;8333341;28;20224;-72
2022/02/19 10:58:18;;;;;;;10.63;2.73;;;;;;;16.03;25.79;98018.00;8348898;28;20297;-72
2022/02/19 11:02:23;;;;;;;6.83;2.43;;;;;;;15.56;26.33;98028.88;8351504;28;20557;-72
2022/02/19 11:06:28;;;;;;;9.03;2.50;;;;;;;15.57;26.09;98031.41;8351325;28;20534;-72
2022/02/19 11:10:33;;;;;;;7.90;2.37;;;;;;;15.50;25.98;98008.38;8350846;28;20539;-73
2022/02/19 11:14:38;;;;;;;6.23;2.30;;;;;;;15.04;26.39;98019.91;8351156;28;20232;-73
2022/02/19 11:18:43;;;;;;;8.90;2.50;;;;;;;14.58;26.93;98020.09;8351169;28;20235;-72
2022/02/19 11:23:07;;;;;;;8.80;2.60;;;;;;;15.27;26.98;98015.91;8350442;28;20224;-72
2022/02/19 11:27:10;;;;;;;7.50;2.30;;;;;;;14.32;27.32;98032.91;8348138;28;20239;-74
2022/02/19 11:31:15;;;;;;;7.13;2.20;;;;;;;14.40;27.21;98017.63;8351326;28;20228;-72
2022/02/19 11:35:31;;;;;;;8.73;2.43;;;;;;;14.47;26.75;98010.31;8351078;28;20232;-72
2022/02/19 11:40:00;;;;;;;5.30;2.10;;;;;;;14.32;27.31;98017.25;8340345;28;20224;-73
2022/02/19 11:44:30;;;;;;;7.00;2.13;;;;;;;14.23;26.62;98008.22;8349441;28;20232;-71
2022/02/19 11:48:34;;;;;;;10.83;2.17;;;;;;;15.50;35.41;98017.06;8349244;28;20433;-70
2022/02/19 11:52:41;;;;;;;9.00;2.30;;;;;;;14.61;28.81;98012.94;8349994;28;20550;-68
2022/02/19 11:56:47;;;;;;;7.13;2.30;;;;;;;15.12;28.10;98015.09;8350651;28;20239;-68
2022/02/19 12:00:53;;;;;;;5.70;2.03;;;;;;;14.15;27.09;98007.00;8351337;28;20232;-70
2022/02/19 12:05:15;;;;;;;5.73;1.93;;;;;;;14.01;26.83;97998.22;8350062;28;20531;-72
2022/02/19 12:09:19;;;;;;;8.60;2.67;;;;;;;14.07;27.01;97997.84;8343094;28;20238;-66
2022/02/19 12:13:43;;;;;;;8.10;2.50;;;;;;;13.93;27.87;97991.75;8325493;28;20236;-66
2022/02/19 12:17:47;;;;;;;6.00;2.20;;;;;;;14.58;27.72;98002.72;8337275;28;20228;-67
2022/02/19 12:21:50;;;;;;;7.43;2.00;;;;;;;14.28;27.19;97998.38;8349615;28;20390;-67
2022/02/19 12:26:10;;;;;;;8.03;2.13;;;;;;;14.05;26.58;97989.28;8349498;28;20238;-67
2022/02/19 12:30:32;;;;;;;4.60;1.70;;;;;;;13.78;26.60;98004.72;8349344;28;20239;-67
2022/02/19 12:34:36;;;;;;;8.87;2.10;;;;;;;13.42;27.53;97999.81;8348925;28;20395;-67
2022/02/19 12:38:45;;;;;;;6.77;2.10;;;;;;;14.30;27.38;97998.28;8344505;28;20252;-66
2022/02/19 12:42:51;;;;;;;5.77;1.70;;;;;;;13.66;27.21;98008.84;8346488;28;20228;-67
2022/02/19 12:46:56;;;;;;;4.43;1.60;;;;;;;13.68;26.04;98008.78;8348974;28;20561;-66
2022/02/19 12:50:59;;;;;;;5.97;1.87;;;;;;;13.46;26.28;98002.19;8348401;28;20231;-66
2022/02/19 12:55:02;;;;;;;7.77;1.80;;;;;;;12.78;26.62;97996.31;8348941;28;20642;-67
2022/02/19 12:59:05;;;;;;;5.67;1.53;;;;;;;12.94;26.57;97998.94;8349020;28;20232;-67
2022/02/19 13:03:10;;;;;;;6.03;2.03;;;;;;;13.48;26.28;97989.09;8349141;28;20228;-67
2022/02/19 13:07:14;;;;;;;5.60;1.83;;;;;;;13.75;26.27;97972.84;8348638;28;20238;-66
2022/02/19 13:11:17;;;;;;;9.23;1.93;;;;;;;14.31;26.57;97962.63;8348169;28;20333;-67
2022/02/19 13:15:21;;;;;;;6.57;2.30;;;;;;;14.35;26.03;97964.97;8348670;28;20228;-66
2022/02/19 13:19:25;;;;;;;9.20;2.10;;;;;;;14.47;26.76;97960.81;8348566;28;20232;-66
2022/02/19 13:23:29;;;;;;;5.43;2.20;;;;;;;14.43;26.08;97951.47;8348412;28;20326;-66
2022/02/19 13:27:32;;;;;;;5.50;2.00;;;;;;;14.34;25.97;97958.09;8346505;28;20242;-66
2022/02/19 13:31:40;;;;;;;6.63;1.57;;;;;;;14.00;25.66;97965.28;8347914;28;20244;-66
2022/02/19 13:35:45;;;;;;;6.13;1.70;;;;;;;13.69;24.73;97951.44;8347404;28;20228;-66
2022/02/19 13:39:52;;;;;;;6.33;1.90;;;;;;;13.72;25.03;97953.03;8344419;28;20418;-66
2022/02/19 13:44:02;;;;;;;4.30;1.70;;;;;;;14.55;24.80;97955.13;8346868;28;20232;-67
2022/02/19 13:48:06;;;;;;;7.43;1.97;;;;;;;14.64;24.91;97955.44;8346800;28;20347;-67
2022/02/19 13:52:24;;;;;;;6.10;2.07;;;;;;;14.70;24.73;97956.84;8344523;28;20434;-66
2022/02/19 13:56:27;;;;;;;6.43;2.00;;;;;;;14.35;24.80;97956.31;8346604;28;20239;-66
2022/02/19 14:00:51;;;;;;;5.73;2.03;;;;;;;14.54;24.65;97953.44;8343885;28;20220;-66
2022/02/19 14:04:59;;;;;;;4.57;1.80;;;;;;;14.55;24.46;97960.34;8351578;28;20546;-67
2022/02/19 14:09:14;;;;;;;6.20;2.20;;;;;;;14.75;25.01;97975.63;8353415;28;20231;-66
2022/02/19 14:13:22;;;;;;;7.20;1.83;;;;;;;14.77;24.60;97963.31;8352846;28;20293;-67
2022/02/19 14:17:37;;;;;;;5.73;2.07;;;;;;;14.26;25.26;97970.75;8353795;28;20236;-67
2022/02/19 14:21:40;;;;;;;5.83;2.10;;;;;;;13.70;25.40;97975.69;8353578;28;20231;-66
2022/02/19 14:25:56;;;;;;;7.00;2.00;;;;;;;13.88;25.10;97977.25;8353462;28;20271;-66
2022/02/19 14:29:59;;;;;;;4.27;1.57;;;;;;;13.86;25.98;97979.09;8353761;28;20271;-67
2022/02/19 14:34:03;;;;;;;6.80;2.37;;;;;;;13.03;26.66;97995.84;8353347;28;20330;-66
2022/02/19 14:38:30;;;;;;;7.10;2.17;;;;;;;12.73;27.14;97990.53;8353145;28;20236;-66
2022/02/19 14:42:50;;;;;;;6.37;2.27;;;;;;;13.16;26.89;97999.47;8352811;28;20233;-66
2022/02/19 14:46:54;;;;;;;10.03;3.20;;;;;;;13.55;26.78;98006.00;8352930;28;20260;-66
2022/02/19 14:50:57;;;;;;;7.00;2.13;;;;;;;13.18;27.65;98017.59;8353355;28;20569;-66
2022/02/19 14:55:00;;;;;;;8.40;2.23;;;;;;;12.72;27.96;98005.28;8353216;28;20414;-66
2022/02/19 14:59:06;;;;;;;7.93;2.40;;;;;;;12.54;28.65;98019.22;8352940;28;20232;-66
2022/02/19 15:03:09;;;;;;;14.67;8.67;;;;;;;12.77;28.17;98011.06;8352738;28;20543;-66
2022/02/19 15:07:12;;;;;;;10.67;2.80;;;;;;;12.93;28.54;98000.69;8352756;28;20238;-66
2022/02/19 15:11:15;;;;;;;6.47;2.30;;;;;;;12.70;28.97;98012.31;8352298;28;20232;-66
2022/02/19 15:15:23;;;;;;;6.60;2.03;;;;;;;12.47;28.98;98011.75;8351486;28;20239;-67
2022/02/19 15:19:26;;;;;;;7.77;2.50;;;;;;;12.38;29.39;98001.00;8352215;28;20551;-66
2022/02/19 15:23:29;;;;;;;15.37;6.90;;;;;;;12.06;30.09;98016.41;8352059;28;20577;-66
2022/02/19 15:27:33;;;;;;;8.33;2.47;;;;;;;12.17;29.68;98018.50;8351174;28;20232;-66
2022/02/19 15:31:37;;;;;;;5.20;2.00;;;;;;;12.26;29.81;98010.22;8351579;28;20240;-66
2022/02/19 15:35:40;;;;;;;7.53;2.20;;;;;;;12.19;29.89;98014.06;8351377;28;20239;-66
2022/02/19 15:39:43;;;;;;;8.07;2.23;;;;;;;12.10;30.10;98016.19;8350659;28;20293;-66
2022/02/19 15:43:46;;;;;;;5.13;1.90;;;;;;;11.79;29.97;97995.25;8348971;28;20228;-66
2022/02/19 15:47:51;;;;;;;7.37;3.53;;;;;;;11.80;29.73;97976.97;8350791;28;20258;-66
2022/02/19 15:51:54;;;;;;;8.57;4.73;;;;;;;11.97;30.11;97985.72;8349542;28;20232;-66
2022/02/19 15:55:59;;;;;;;17.87;9.87;;;;;;;11.92;30.06;97991.16;8350632;28;20243;-65
2022/02/19 16:00:03;;;;;;;10.67;6.57;;;;;;;11.35;30.91;97984.31;8351004;28;20409;-66
2022/02/19 16:04:07;;;;;;;19.30;13.77;;;;;;;12.09;30.38;97974.75;8350905;28;20235;-65
2022/02/19 16:08:10;;;;;;;31.50;25.03;;;;;;;11.93;30.25;97980.69;8350394;28;20232;-66
2022/02/19 16:12:13;;;;;;;7.03;3.23;;;;;;;11.51;30.74;97974.03;8350181;28;20404;-66
2022/02/19 16:16:16;;;;;;;6.53;2.10;;;;;;;11.61;30.77;97969.25;8350408;28;20236;-66
2022/02/19 16:20:21;;;;;;;7.50;2.60;;;;;;;11.50;30.92;97964.59;8350099;28;20236;-66
2022/02/19 16:24:24;;;;;;;6.90;2.57;;;;;;;11.45;31.12;97982.13;8349779;28;20231;-66
2022/02/19 16:28:26;;;;;;;6.00;2.20;;;;;;;11.49;31.54;97983.66;8349781;28;20418;-67
2022/02/19 16:32:29;;;;;;;9.27;2.73;;;;;;;11.25;31.88;97974.44;8350064;28;20539;-66
2022/02/19 16:36:34;;;;;;;6.00;2.30;;;;;;;11.30;31.89;97981.09;8349377;28;20435;-67
2022/02/19 16:40:37;;;;;;;8.30;3.77;;;;;;;11.26;32.30;97979.56;8348429;28;20232;-66
2022/02/19 16:44:40;;;;;;;6.50;3.17;;;;;;;11.31;32.22;97976.78;8349103;28;20227;-66
2022/02/19 16:48:44;;;;;;;6.77;2.87;;;;;;;11.26;32.23;97983.91;8349277;28;20240;-66
2022/02/19 16:52:48;;;;;;;8.10;3.40;;;;;;;11.24;32.67;97980.56;8349169;28;20243;-66
2022/02/19 16:56:51;;;;;;;8.07;4.30;;;;;;;11.25;32.56;97985.69;8348435;28;20240;-66
2022/02/19 17:00:55;;;;;;;8.60;2.70;;;;;;;11.05;32.41;97981.41;8347329;28;20238;-66
2022/02/19 17:04:58;;;;;;;8.90;3.37;;;;;;;11.19;32.65;97979.91;8333977;28;20232;-66
2022/02/19 17:09:03;;;;;;;8.40;2.80;;;;;;;11.10;32.61;97971.66;8348543;28;20557;-66
2022/02/19 17:13:08;;;;;;;6.40;2.53;;;;;;;10.80;33.63;97967.91;8348436;28;20246;-66
2022/02/19 17:17:11;;;;;;;6.63;2.40;;;;;;;10.88;33.27;97976.16;8347848;28;20228;-66
2022/02/19 17:21:14;;;;;;;8.70;3.57;;;;;;;11.04;32.75;97971.09;8347659;28;20232;-66
2022/02/19 17:25:19;;;;;;;7.83;2.60;;;;;;;10.72;33.06;97963.88;8347051;28;20232;-66
2022/02/19 17:29:22;;;;;;;6.50;2.67;;;;;;;10.64;33.44;97960.81;8347888;28;20246;-66
2022/02/19 17:33:28;;;;;;;5.90;2.30;;;;;;;10.72;33.30;97952.69;8347958;28;20538;-66
2022/02/19 17:37:31;;;;;;;9.07;3.17;;;;;;;10.74;33.80;97961.25;8347333;28;20224;-66
2022/02/19 17:41:35;;;;;;;8.00;3.30;;;;;;;10.28;34.63;97951.13;8347608;28;20239;-66
2022/02/19 17:45:38;;;;;;;7.43;2.87;;;;;;;10.66;33.89;97959.00;8347803;28;20240;-65
2022/02/19 17:49:41;;;;;;;8.10;3.00;;;;;;;10.61;33.79;97945.41;8347660;28;20235;-66
2022/02/19 17:53:43;;;;;;;8.37;3.10;;;;;;;10.64;33.72;97955.63;8347165;28;20247;-65
2022/02/19 17:57:49;;;;;;;9.25;4.15;;;;;;;10.75;33.02;97955.97;8336312;28;20766;-65
2022/02/19 18:01:52;;;;;;;9.80;3.33;;;;;;;10.60;33.82;97951.47;8314575;28;20235;-66
2022/02/19 18:06:00;;;;;;;9.10;3.07;;;;;;;10.63;33.48;97951.34;8314614;28;20228;-67
2022/02/19 18:10:06;;;;;;;9.53;3.33;;;;;;;10.28;34.18;97961.50;8344788;28;20427;-67
2022/02/19 18:14:14;;;;;;;8.63;4.23;;;;;;;10.55;33.88;97958.63;8346831;28;20254;-67
2022/02/19 18:18:19;;;;;;;9.80;3.53;;;;;;;10.65;33.75;97959.06;8347285;28;20441;-67
2022/02/19 18:22:22;;;;;;;10.20;5.27;;;;;;;10.53;34.03;97956.09;8347468;28;20430;-67
2022/02/19 18:26:26;;;;;;;10.23;3.70;;;;;;;10.40;34.54;97954.97;8347205;28;20231;-67
2022/02/19 18:30:30;;;;;;;7.67;2.73;;;;;;;10.41;34.28;97950.63;8346643;28;20262;-67
2022/02/19 18:34:36;;;;;;;6.43;2.60;;;;;;;9.91;34.95;97949.25;8346438;28;20228;-67
2022/02/19 18:38:39;;;;;;;7.70;3.00;;;;;;;10.24;34.57;97946.97;8346622;28;20236;-66
2022/02/19 18:42:44;;;;;;;8.37;3.07;;;;;;;10.42;34.59;97942.78;8346849;28;20232;-66
2022/02/19 18:47:08;;;;;;;6.07;3.10;;;;;;;10.35;34.72;97939.63;8346485;28;20396;-68
2022/02/19 18:51:12;;;;;;;7.90;4.40;;;;;;;10.42;34.79;97940.19;8351120;28;20244;-67
2022/02/19 18:55:15;;;;;;;13.07;5.67;;;;;;;10.17;35.25;97935.22;8352875;28;20235;-67
2022/02/19 18:59:38;;;;;;;9.70;4.70;;;;;;;9.94;35.56;97924.09;8352116;28;20243;-66
2022/02/19 19:03:42;;;;;;;11.37;5.13;;;;;;;10.05;35.56;97920.22;8352397;28;20243;-65
2022/02/19 19:07:45;;;;;;;8.60;5.73;;;;;;;9.93;35.75;97927.59;8351436;28;20232;-65
2022/02/19 19:11:48;;;;;;;11.67;5.47;;;;;;;9.72;36.20;97915.56;8352268;28;20243;-67
2022/02/19 19:15:51;;;;;;;10.37;5.87;;;;;;;9.67;36.00;97915.78;8352105;28;20311;-65
2022/02/19 19:19:56;;;;;;;12.77;5.50;;;;;;;9.92;35.55;97914.75;8351962;28;20232;-65